Time;durP1;ratioP1;P1;durP2;ratioP2;P2;SDS_P1;SDS_P2;PMS_P1;PMS_P2;Temp;Humidity;BMP_temperature;BMP_pressure;BME280_temperature;BME280_humidity;BME280_pressure;Samples;Min_cycle;Max_cycle;Signal;HPM_P1;HPM_P2
2021/08/01 00:02:15;;;;;;;8.40;4.38;;;;;;;16.88;72.66;97225.72;5026714;28;20079;-60
2021/08/01 00:04:41;;;;;;;9.88;4.85;;;;;;;16.90;72.73;97227.25;5029087;28;20025;-61
2021/08/01 00:07:07;;;;;;;8.68;4.00;;;;;;;16.92;72.59;97229.78;5028052;28;20037;-61
2021/08/01 00:09:32;;;;;;;7.65;3.90;;;;;;;16.90;73.01;97221.16;5026982;28;20635;-61
2021/08/01 00:11:58;;;;;;;8.80;4.78;;;;;;;16.99;72.42;97223.06;5026731;28;20049;-59
2021/08/01 00:14:23;;;;;;;7.72;4.00;;;;;;;17.11;72.08;97213.31;5031669;28;20029;-60
2021/08/01 00:16:48;;;;;;;7.35;4.03;;;;;;;17.17;72.44;97217.25;5031596;28;20037;-62
2021/08/01 00:19:14;;;;;;;8.57;3.88;;;;;;;17.05;72.44;97212.03;5031611;28;20029;-60
2021/08/01 00:21:39;;;;;;;9.50;4.30;;;;;;;17.15;72.84;97210.34;5033041;28;20339;-61
2021/08/01 00:24:05;;;;;;;8.27;4.10;;;;;;;16.93;73.89;97199.84;5031768;28;20055;-60
2021/08/01 00:26:30;;;;;;;9.32;4.50;;;;;;;17.06;73.19;97205.81;5030658;28;20095;-62
2021/08/01 00:28:55;;;;;;;7.32;4.18;;;;;;;16.84;74.00;97203.22;5030483;28;20040;-60
2021/08/01 00:31:21;;;;;;;7.28;4.20;;;;;;;16.85;74.12;97195.16;5033150;28;20115;-60
2021/08/01 00:33:46;;;;;;;8.85;4.50;;;;;;;16.67;75.33;97194.81;5032471;28;20033;-59
2021/08/01 00:36:12;;;;;;;7.47;4.40;;;;;;;16.61;76.46;97184.75;5031125;28;20036;-60
2021/08/01 00:38:37;;;;;;;8.88;4.80;;;;;;;16.60;78.01;97193.63;5030789;28;20029;-62
2021/08/01 00:41:03;;;;;;;8.32;4.65;;;;;;;16.57;77.92;97183.31;5033804;28;20040;-61
2021/08/01 00:43:28;;;;;;;8.93;4.53;;;;;;;16.84;76.99;97190.03;5034342;28;20025;-60
2021/08/01 00:45:53;;;;;;;6.97;4.95;;;;;;;16.57;80.11;97191.22;5031725;28;20055;-60
2021/08/01 00:48:23;;;;;;;6.95;4.50;;;;;;;16.35;80.64;97197.31;5029745;28;20056;-62
2021/08/01 00:50:49;;;;;;;8.63;4.93;;;;;;;16.51;80.87;97183.81;5032276;28;20045;-61
2021/08/01 00:53:14;;;;;;;6.68;3.97;;;;;;;16.65;79.89;97191.47;5033535;28;20032;-60
2021/08/01 00:55:40;;;;;;;9.93;4.90;;;;;;;16.42;79.53;97187.16;5033795;28;20064;-61
2021/08/01 00:58:05;;;;;;;12.38;5.05;;;;;;;16.29;80.17;97180.22;5031316;28;20029;-59
2021/08/01 01:03:18;;;;;;;7.95;4.38;;;;;;;16.77;78.82;97187.84;5027756;28;20501;-62
2021/08/01 01:06:00;;;;;;;7.70;4.55;;;;;;;16.62;79.11;97196.97;5032689;28;20140;-61
2021/08/01 01:08:33;;;;;;;9.98;4.82;;;;;;;16.57;79.74;97207.84;5033931;28;20025;-62
2021/08/01 01:11:01;;;;;;;8.43;4.72;;;;;;;16.70;80.50;97213.00;5030310;28;20114;-62
2021/08/01 01:13:33;;;;;;;7.60;4.53;;;;;;;16.39;83.59;97211.91;5029874;28;20029;-61
2021/08/01 01:16:00;;;;;;;8.05;4.07;;;;;;;16.65;82.10;97217.81;5031388;28;20049;-60
2021/08/01 01:18:32;;;;;;;7.88;5.20;;;;;;;16.57;83.01;97220.19;5032278;28;20755;-60
2021/08/01 01:21:02;;;;;;;9.32;4.85;;;;;;;16.60;83.56;97219.09;5033063;28;20119;-62
2021/08/01 01:24:05;;;;;;;9.85;4.72;;;;;;;16.64;85.36;97226.63;5031334;28;20796;-60
2021/08/01 01:26:42;;;;;;;8.20;4.88;;;;;;;16.37;89.76;97238.34;5026904;28;20578;-61
2021/08/01 01:29:23;;;;;;;6.50;4.13;;;;;;;16.40;92.26;97253.06;5031272;28;20017;-60
2021/08/01 01:31:48;;;;;;;14.48;6.05;;;;;;;15.82;94.49;97255.66;5031421;28;20041;-61
2021/08/01 01:34:39;;;;;;;10.73;6.38;;;;;;;15.85;94.30;97251.97;5032806;28;20108;-60
2021/08/01 01:37:13;;;;;;;11.40;5.90;;;;;;;15.87;97.57;97258.78;5030861;28;20029;-59
2021/08/01 01:39:40;;;;;;;18.05;7.10;;;;;;;15.82;99.20;97258.28;5032223;28;20033;-59
2021/08/01 01:42:09;;;;;;;10.27;6.38;;;;;;;16.10;98.23;97264.09;5029750;28;20037;-59
2021/08/01 01:44:36;;;;;;;13.68;6.20;;;;;;;15.96;98.56;97266.00;5029601;28;20053;-60
2021/08/01 01:47:02;;;;;;;14.80;7.00;;;;;;;15.64;99.48;97260.47;5030684;28;20148;-59
2021/08/01 01:49:28;;;;;;;10.95;7.00;;;;;;;15.77;99.00;97263.06;5029596;28;20025;-59
2021/08/01 01:51:54;;;;;;;11.68;6.63;;;;;;;15.73;99.47;97256.31;5044100;28;20127;-60
2021/08/01 01:54:21;;;;;;;10.00;6.97;;;;;;;15.80;98.77;97253.13;5030393;28;20544;-59
2021/08/01 01:56:46;;;;;;;11.02;6.43;;;;;;;16.08;98.07;97258.13;5030253;28;20060;-60
2021/08/01 01:59:12;;;;;;;12.15;6.35;;;;;;;15.94;97.30;97260.00;5031213;28;20109;-61
2021/08/01 02:01:39;;;;;;;11.52;7.00;;;;;;;15.79;98.56;97256.72;5027953;28;20182;-59
2021/08/01 02:04:05;;;;;;;8.77;5.72;;;;;;;15.68;97.19;97254.03;5030020;28;20032;-61
2021/08/01 02:06:30;;;;;;;13.52;6.18;;;;;;;15.81;96.90;97254.00;5028175;28;20045;-61
2021/08/01 02:09:29;;;;;;;13.40;7.38;;;;;;;15.72;100.00;97249.38;5032519;28;20039;-61
2021/08/01 02:11:58;;;;;;;12.93;6.13;;;;;;;15.86;100.00;97241.34;5031497;28;20068;-61
2021/08/01 02:14:31;;;;;;;7.47;5.28;;;;;;;16.10;99.01;97250.97;5031696;28;20037;-61
2021/08/01 02:17:04;;;;;;;9.88;6.45;;;;;;;15.93;100.00;97252.22;5028696;28;20033;-60
2021/08/01 02:19:34;;;;;;;14.77;5.47;;;;;;;15.83;100.00;97246.81;5031615;28;20817;-59
2021/08/01 02:22:01;;;;;;;13.45;6.60;;;;;;;15.93;100.00;97252.22;5029195;28;20037;-61
2021/08/01 02:24:26;;;;;;;14.07;7.20;;;;;;;15.59;100.00;97245.03;5030636;28;20029;-60
2021/08/01 02:26:52;;;;;;;12.63;7.63;;;;;;;15.33;100.00;97246.06;5030619;28;20408;-61
2021/08/01 02:29:19;;;;;;;10.50;6.25;;;;;;;15.72;100.00;97241.50;5029896;28;20036;-60
2021/08/01 02:31:45;;;;;;;14.52;7.00;;;;;;;15.71;100.00;97239.81;5032991;28;20041;-60
2021/08/01 02:34:11;;;;;;;8.35;4.90;;;;;;;16.18;96.16;97230.19;5031082;28;20044;-60
2021/08/01 02:36:38;;;;;;;14.55;6.28;;;;;;;15.80;99.07;97233.91;5028590;28;20072;-59
2021/08/01 02:39:04;;;;;;;16.20;5.80;;;;;;;15.41;100.00;97223.56;5030029;28;20029;-61
2021/08/01 02:41:40;;;;;;;9.15;5.93;;;;;;;15.63;100.00;97223.78;5030459;28;20461;-60
2021/08/01 02:44:19;;;;;;;14.30;6.38;;;;;;;15.67;100.00;97225.22;5029838;28;20056;-62
2021/08/01 02:46:45;;;;;;;13.15;6.85;;;;;;;15.60;100.00;97230.94;5029289;28;20044;-63
2021/08/01 02:49:17;;;;;;;11.32;6.25;;;;;;;15.62;100.00;97222.91;5030619;28;20028;-60
2021/08/01 02:51:46;;;;;;;10.30;6.60;;;;;;;15.79;100.00;97230.44;5027874;28;20044;-60
2021/08/01 02:54:13;;;;;;;9.98;5.40;;;;;;;15.79;100.00;97234.88;5028187;28;20264;-60
2021/08/01 02:56:39;;;;;;;10.82;5.47;;;;;;;15.75;100.00;97233.41;5028229;28;20695;-61
2021/08/01 02:59:06;;;;;;;12.90;6.90;;;;;;;15.41;100.00;97233.22;5029871;28;20513;-62
2021/08/01 03:01:31;;;;;;;11.45;7.57;;;;;;;15.60;100.00;97235.34;5029377;28;20138;-61
2021/08/01 03:03:58;;;;;;;8.45;4.93;;;;;;;15.73;100.00;97236.13;5029907;28;20447;-61
2021/08/01 03:06:24;;;;;;;12.18;5.80;;;;;;;15.59;100.00;97238.94;5030676;28;20036;-60
2021/08/01 03:08:49;;;;;;;10.35;6.45;;;;;;;15.34;100.00;97240.72;5031243;28;20398;-60
2021/08/01 03:11:22;;;;;;;12.45;7.28;;;;;;;15.41;100.00;97241.13;5030954;28;20030;-60
2021/08/01 03:13:47;;;;;;;9.13;6.47;;;;;;;15.30;100.00;97235.81;5030934;28;20025;-60
2021/08/01 03:16:13;;;;;;;10.95;7.50;;;;;;;15.40;100.00;97244.69;5030745;28;20033;-60
2021/08/01 03:18:38;;;;;;;13.13;7.32;;;;;;;15.22;100.00;97239.81;5029744;28;20045;-59
2021/08/01 03:21:03;;;;;;;13.85;8.13;;;;;;;15.33;100.00;97232.94;5031989;28;20030;-60
2021/08/01 03:23:29;;;;;;;15.50;7.28;;;;;;;15.13;100.00;97235.22;5029241;28;20036;-61
2021/08/01 03:25:54;;;;;;;13.75;8.48;;;;;;;15.07;100.00;97227.78;5029877;28;20041;-59
2021/08/01 03:28:19;;;;;;;19.05;6.88;;;;;;;15.27;100.00;97233.38;5032565;28;20381;-59
2021/08/01 03:30:45;;;;;;;12.23;7.63;;;;;;;15.17;100.00;97223.53;5030391;28;20029;-61
2021/08/01 03:33:10;;;;;;;13.65;8.55;;;;;;;15.16;100.00;97227.13;5029138;28;20049;-58
2021/08/01 03:35:35;;;;;;;14.57;9.43;;;;;;;14.98;100.00;97223.19;5029829;28;20136;-60
2021/08/01 03:38:01;;;;;;;12.85;8.68;;;;;;;15.00;100.00;97216.88;5030977;28;20617;-59
2021/08/01 03:40:26;;;;;;;14.32;9.48;;;;;;;14.94;100.00;97211.22;5030954;28;20776;-59
2021/08/01 03:42:51;;;;;;;11.38;8.00;;;;;;;14.97;100.00;97211.84;5030116;28;20029;-59
2021/08/01 03:45:17;;;;;;;20.27;10.38;;;;;;;15.17;100.00;97206.97;5031235;28;20038;-61
2021/08/01 03:47:42;;;;;;;15.07;9.20;;;;;;;14.95;100.00;97197.16;5029646;28;20445;-61
2021/08/01 03:50:08;;;;;;;46.58;11.55;;;;;;;14.93;100.00;97197.25;5028113;28;20031;-62
2021/08/01 03:52:34;;;;;;;45.55;12.35;;;;;;;14.86;100.00;97192.56;5031953;28;20033;-60
2021/08/01 03:54:59;;;;;;;21.27;12.18;;;;;;;14.88;100.00;97193.28;5029047;28;20040;-60
2021/08/01 03:57:24;;;;;;;14.43;6.97;;;;;;;14.81;100.00;97188.50;5029758;28;20552;-60
2021/08/01 03:59:50;;;;;;;16.20;8.05;;;;;;;14.78;100.00;97186.06;5029382;28;20037;-60
2021/08/01 04:02:15;;;;;;;25.77;11.80;;;;;;;14.73;100.00;97190.78;5030982;28;20044;-59
2021/08/01 04:04:41;;;;;;;15.63;9.70;;;;;;;14.76;100.00;97182.72;5030166;28;20029;-60
2021/08/01 04:07:06;;;;;;;20.40;8.95;;;;;;;14.59;100.00;97190.94;5027769;28;20076;-60
2021/08/01 04:09:32;;;;;;;26.65;12.18;;;;;;;14.74;100.00;97189.88;5028674;28;20454;-60
2021/08/01 04:11:57;;;;;;;13.93;9.02;;;;;;;14.71;100.00;97190.06;5030002;28;20037;-61
2021/08/01 04:14:25;;;;;;;20.83;11.82;;;;;;;14.63;100.00;97193.25;5029280;28;20810;-62
2021/08/01 04:16:53;;;;;;;16.02;9.57;;;;;;;14.82;100.00;97197.19;5029608;28;20825;-59
2021/08/01 04:19:18;;;;;;;13.98;8.13;;;;;;;14.75;100.00;97191.53;5028181;28;20025;-62
2021/08/01 04:21:44;;;;;;;21.02;10.10;;;;;;;14.67;100.00;97188.63;5030155;28;20029;-60
2021/08/01 04:24:10;;;;;;;15.10;8.43;;;;;;;15.35;100.00;97199.53;5029863;28;20028;-59
2021/08/01 04:26:39;;;;;;;18.88;9.65;;;;;;;16.13;100.00;97198.13;5027568;28;20037;-61
2021/08/01 04:29:05;;;;;;;23.50;8.40;;;;;;;15.26;100.00;97206.28;5028395;28;20025;-61
2021/08/01 04:31:31;;;;;;;12.25;7.85;;;;;;;15.18;100.00;97209.47;5029545;28;20041;-62
2021/08/01 04:33:56;;;;;;;11.43;7.00;;;;;;;15.22;100.00;97203.03;5027227;28;20028;-60
2021/08/01 04:36:22;;;;;;;18.05;9.93;;;;;;;15.47;100.00;97198.59;5027834;28;20045;-62
2021/08/01 04:38:47;;;;;;;20.40;10.27;;;;;;;15.88;100.00;97202.63;5029552;28;20030;-61
2021/08/01 04:41:12;;;;;;;18.00;9.40;;;;;;;16.07;100.00;97199.44;5027702;28;20120;-60
2021/08/01 04:43:38;;;;;;;15.90;9.07;;;;;;;16.08;100.00;97208.16;5029135;28;20237;-61
2021/08/01 04:46:03;;;;;;;10.43;5.50;;;;;;;17.07;100.00;97209.28;5029159;28;20041;-59
2021/08/01 04:48:29;;;;;;;12.85;7.05;;;;;;;16.73;100.00;97210.13;5030043;28;20082;-60
2021/08/01 04:50:54;;;;;;;13.50;9.10;;;;;;;17.19;100.00;97216.19;5026575;28;20045;-60
2021/08/01 04:53:19;;;;;;;11.50;6.25;;;;;;;17.00;100.00;97221.25;5027707;28;20059;-59
2021/08/01 04:55:45;;;;;;;15.30;7.55;;;;;;;17.51;100.00;97225.91;5028516;28;20045;-59
2021/08/01 04:58:10;;;;;;;8.05;5.35;;;;;;;17.90;100.00;97231.53;5028940;28;20519;-60
2021/08/01 05:00:35;;;;;;;15.95;8.43;;;;;;;17.90;100.00;97231.53;5026403;28;20045;-60
2021/08/01 05:03:02;;;;;;;10.63;6.88;;;;;;;17.79;100.00;97232.41;5032992;28;20029;-60
2021/08/01 05:05:28;;;;;;;14.38;8.80;;;;;;;17.99;100.00;97235.22;5041009;28;20044;-61
2021/08/01 05:07:54;;;;;;;14.27;8.68;;;;;;;17.44;100.00;97241.41;5030989;28;20025;-61
2021/08/01 05:10:20;;;;;;;14.10;8.35;;;;;;;17.23;100.00;97243.97;5030932;28;20040;-63
2021/08/01 05:12:45;;;;;;;15.95;10.10;;;;;;;18.02;100.00;97250.81;5030843;28;20139;-60
2021/08/01 05:15:11;;;;;;;11.93;7.75;;;;;;;18.26;100.00;97248.72;5033657;28;20024;-62
2021/08/01 05:17:36;;;;;;;12.32;8.38;;;;;;;17.84;100.00;97248.69;5031654;28;20060;-60
2021/08/01 05:20:02;;;;;;;15.07;7.97;;;;;;;18.97;100.00;97252.47;5031924;28;20029;-62
2021/08/01 05:22:28;;;;;;;13.18;9.20;;;;;;;19.75;100.00;97266.69;5032878;28;20037;-60
2021/08/01 05:24:53;;;;;;;9.52;6.20;;;;;;;19.53;100.00;97272.22;5032255;28;20079;-60
2021/08/01 05:27:18;;;;;;;11.80;6.40;;;;;;;19.84;100.00;97288.84;5032384;28;20038;-63
2021/08/01 05:29:44;;;;;;;12.75;8.38;;;;;;;20.35;100.00;97278.94;5031909;28;20119;-59
2021/08/01 05:32:09;;;;;;;11.82;7.20;;;;;;;20.82;100.00;97278.97;5030378;28;20041;-60
2021/08/01 05:34:35;;;;;;;13.85;8.77;;;;;;;20.28;100.00;97277.84;5030088;28;20032;-61
2021/08/01 05:37:00;;;;;;;12.25;8.68;;;;;;;20.54;100.00;97262.16;5029774;28;20044;-61
2021/08/01 05:39:25;;;;;;;16.60;9.32;;;;;;;24.62;99.80;97263.41;5028524;28;20195;-61
2021/08/01 05:41:51;;;;;;;12.13;7.35;;;;;;;27.47;90.01;97265.19;5030653;28;20036;-60
2021/08/01 05:44:16;;;;;;;12.82;8.32;;;;;;;26.90;90.70;97272.88;5030534;28;20025;-60
2021/08/01 05:46:42;;;;;;;11.68;8.70;;;;;;;26.50;87.70;97274.09;5031878;28;20056;-60
2021/08/01 05:49:07;;;;;;;13.32;8.27;;;;;;;24.79;89.17;97275.72;5030781;28;20029;-63
2021/08/01 05:51:32;;;;;;;10.32;6.90;;;;;;;18.68;85.12;97288.31;5030996;28;20494;-61
2021/08/01 05:53:58;;;;;;;13.23;6.28;;;;;;;16.15;100.00;97291.75;5031021;28;20128;-61
2021/08/01 05:56:23;;;;;;;14.93;8.82;;;;;;;15.71;100.00;97289.75;5029926;28;20095;-60
2021/08/01 05:58:48;;;;;;;12.52;8.18;;;;;;;15.87;100.00;97284.25;5030823;28;20129;-60
2021/08/01 06:01:16;;;;;;;12.63;7.50;;;;;;;16.28;100.00;97289.03;5029077;28;20037;-59
2021/08/01 06:03:42;;;;;;;10.48;6.60;;;;;;;16.11;100.00;97284.22;5029761;28;20106;-61
2021/08/01 06:06:19;;;;;;;8.38;4.93;;;;;;;16.43;100.00;97280.94;5031354;28;20040;-60
2021/08/01 06:08:46;;;;;;;13.90;8.20;;;;;;;16.29;100.00;97284.63;5030912;28;20508;-63
2021/08/01 06:11:13;;;;;;;12.48;8.18;;;;;;;16.49;100.00;97283.13;5030656;28;20041;-62
2021/08/01 06:13:39;;;;;;;17.58;9.63;;;;;;;16.37;100.00;97288.34;5029817;28;20235;-61
2021/08/01 06:16:09;;;;;;;14.85;9.82;;;;;;;16.75;100.00;97287.19;5032308;28;20120;-63
2021/08/01 06:18:35;;;;;;;16.92;9.98;;;;;;;16.67;100.00;97289.59;5031805;28;20029;-62
2021/08/01 06:21:09;;;;;;;16.70;8.80;;;;;;;16.48;100.00;97284.06;5027730;28;20037;-63
2021/08/01 06:23:36;;;;;;;15.60;7.95;;;;;;;16.52;100.00;97285.50;5029769;28;20545;-61
2021/08/01 06:26:02;;;;;;;14.02;9.55;;;;;;;16.49;100.00;97278.69;5028364;28;20852;-60
2021/08/01 06:28:27;;;;;;;11.82;7.65;;;;;;;16.61;100.00;97283.97;5029688;28;20031;-64
2021/08/01 06:30:53;;;;;;;9.50;6.07;;;;;;;16.61;100.00;97283.97;5030901;28;20055;-61
2021/08/01 06:33:18;;;;;;;12.93;8.55;;;;;;;16.36;100.00;97281.41;5031764;28;20025;-63
2021/08/01 06:35:44;;;;;;;14.32;9.70;;;;;;;16.56;100.00;97286.97;5028715;28;20073;-61
2021/08/01 06:38:09;;;;;;;11.68;8.48;;;;;;;16.65;100.00;97286.25;5030929;28;20055;-61
2021/08/01 06:40:35;;;;;;;15.95;9.05;;;;;;;16.66;100.00;97292.34;5030297;28;20045;-61
2021/08/01 06:43:00;;;;;;;12.93;6.75;;;;;;;16.82;100.00;97292.84;5029589;28;20477;-60
2021/08/01 06:45:25;;;;;;;14.63;8.10;;;;;;;16.70;100.00;97294.59;5029101;28;20041;-63
2021/08/01 06:47:50;;;;;;;12.88;6.80;;;;;;;16.81;100.00;97300.84;5030261;28;20033;-63
2021/08/01 06:50:16;;;;;;;12.93;7.10;;;;;;;16.71;100.00;97308.63;5028475;28;20083;-60
2021/08/01 06:52:41;;;;;;;10.27;6.40;;;;;;;16.93;100.00;97310.47;5028979;28;20083;-61
2021/08/01 06:55:07;;;;;;;9.77;5.03;;;;;;;16.96;100.00;97307.59;5029225;28;20038;-63
2021/08/01 06:57:32;;;;;;;13.40;7.78;;;;;;;16.94;100.00;97312.13;5029547;28;20132;-60
2021/08/01 06:59:57;;;;;;;22.95;9.48;;;;;;;16.68;100.00;97306.22;5031375;28;20741;-63
2021/08/01 07:02:23;;;;;;;24.67;7.78;;;;;;;16.81;100.00;97311.38;5028270;28;20037;-63
2021/08/01 07:04:48;;;;;;;19.25;8.95;;;;;;;16.33;100.00;97296.59;5030141;28;20116;-61
2021/08/01 07:07:16;;;;;;;15.55;7.28;;;;;;;16.90;100.00;97301.00;5026305;28;20462;-61
2021/08/01 07:09:41;;;;;;;13.30;7.50;;;;;;;16.76;100.00;97298.56;5025005;28;20103;-61
2021/08/01 07:12:08;;;;;;;17.95;7.40;;;;;;;16.91;100.00;97305.31;5028158;28;20407;-62
2021/08/01 07:14:34;;;;;;;15.02;7.75;;;;;;;16.82;100.00;97307.78;5028119;28;20033;-64
2021/08/01 07:17:00;;;;;;;11.45;6.13;;;;;;;17.12;100.00;97302.78;5029154;28;20045;-64
2021/08/01 07:19:25;;;;;;;10.32;6.13;;;;;;;17.23;100.00;97285.31;5028661;28;20029;-63
2021/08/01 07:21:51;;;;;;;12.32;7.18;;;;;;;17.09;100.00;97295.16;5028144;28;20103;-61
2021/08/01 07:24:16;;;;;;;10.32;6.10;;;;;;;17.53;100.00;97293.41;5027853;28;20036;-63
2021/08/01 07:26:41;;;;;;;11.30;6.57;;;;;;;17.04;100.00;97302.56;5029209;28;20047;-63
2021/08/01 07:29:07;;;;;;;9.88;6.10;;;;;;;17.51;100.00;97300.56;5028874;28;20033;-61
2021/08/01 07:31:32;;;;;;;10.63;5.95;;;;;;;17.65;99.77;97302.09;5028193;28;20603;-61
2021/08/01 07:34:00;;;;;;;9.70;6.13;;;;;;;17.18;100.00;97308.53;5029768;28;20060;-63
2021/08/01 07:36:26;;;;;;;10.63;6.43;;;;;;;17.25;100.00;97304.47;5029744;28;20033;-62
2021/08/01 07:38:51;;;;;;;14.70;7.20;;;;;;;17.24;100.00;97308.03;5027478;28;20599;-62
2021/08/01 07:41:16;;;;;;;8.70;6.15;;;;;;;17.37;99.92;97308.78;5027943;28;20051;-62
2021/08/01 07:43:42;;;;;;;7.90;4.60;;;;;;;17.93;95.44;97299.88;5027801;28;20033;-61
2021/08/01 07:46:10;;;;;;;12.45;5.78;;;;;;;17.76;96.08;97308.31;5043184;28;20458;-61
2021/08/01 07:48:35;;;;;;;8.05;5.20;;;;;;;18.27;94.52;97305.03;5029830;28;20025;-62
2021/08/01 07:51:00;;;;;;;8.30;5.47;;;;;;;18.33;93.75;97311.59;5027715;28;20384;-62
2021/08/01 07:53:26;;;;;;;8.43;5.85;;;;;;;17.99;92.12;97298.53;5028526;28;20491;-62
2021/08/01 07:55:52;;;;;;;8.38;5.50;;;;;;;17.80;91.53;97294.75;5028906;28;20041;-61
2021/08/01 07:58:17;;;;;;;9.15;5.75;;;;;;;19.18;89.81;97295.50;5028785;28;20033;-64
2021/08/01 08:00:42;;;;;;;7.63;4.60;;;;;;;18.70;89.18;97304.03;5028713;28;20045;-61
2021/08/01 08:03:08;;;;;;;8.68;4.93;;;;;;;18.43;91.72;97307.19;5027300;28;20643;-61
2021/08/01 08:05:35;;;;;;;7.50;4.90;;;;;;;18.60;88.94;97297.84;5025278;28;20575;-62
2021/08/01 08:08:00;;;;;;;9.57;4.72;;;;;;;18.80;86.85;97298.78;5027186;28;20037;-62
2021/08/01 08:10:26;;;;;;;6.95;4.55;;;;;;;18.71;87.97;97299.56;5029758;28;20043;-63
2021/08/01 08:12:51;;;;;;;6.43;4.15;;;;;;;18.83;87.28;97298.56;5030792;28;20025;-63
2021/08/01 08:15:17;;;;;;;8.77;4.90;;;;;;;18.79;88.68;97300.59;5030878;28;20033;-61
2021/08/01 08:17:42;;;;;;;6.47;4.65;;;;;;;19.15;85.81;97316.09;5030458;28;20039;-64
2021/08/01 08:20:08;;;;;;;7.38;4.43;;;;;;;18.78;86.48;97313.94;5029293;28;20029;-61
2021/08/01 08:22:34;;;;;;;7.45;4.80;;;;;;;19.17;88.26;97322.06;5026012;28;20123;-59
2021/08/01 08:24:59;;;;;;;9.02;4.00;;;;;;;19.10;89.15;97321.78;5028350;28;20083;-60
2021/08/01 08:27:25;;;;;;;7.65;4.18;;;;;;;18.94;86.71;97322.25;5031549;28;20033;-62
2021/08/01 08:29:50;;;;;;;7.25;4.40;;;;;;;19.01;82.76;97326.03;5026733;28;20029;-64
2021/08/01 08:32:16;;;;;;;7.78;4.75;;;;;;;18.52;85.72;97324.91;5027302;28;20025;-60
2021/08/01 08:34:41;;;;;;;8.80;5.32;;;;;;;18.59;87.70;97327.88;5032731;28;20035;-60
2021/08/01 08:37:07;;;;;;;8.85;4.85;;;;;;;19.19;85.70;97323.63;5036471;28;20040;-64
2021/08/01 08:39:32;;;;;;;12.27;5.40;;;;;;;18.93;86.49;97330.31;5032665;28;20029;-61
2021/08/01 08:41:59;;;;;;;6.93;4.45;;;;;;;20.23;82.57;97331.19;5035327;28;20056;-60
2021/08/01 08:44:25;;;;;;;7.55;4.57;;;;;;;19.84;81.34;97334.66;5035801;28;20044;-62
2021/08/01 08:46:53;;;;;;;6.57;4.65;;;;;;;20.70;77.43;97331.31;5013894;28;20039;-63
2021/08/01 08:49:19;;;;;;;7.63;4.22;;;;;;;20.93;74.21;97329.16;5035803;28;20028;-63
2021/08/01 08:51:49;;;;;;;5.80;3.83;;;;;;;22.61;69.99;97333.34;5035004;28;20029;-64
2021/08/01 08:54:21;;;;;;;7.50;4.10;;;;;;;21.77;73.50;97327.41;5032917;28;20029;-64
2021/08/01 08:56:48;;;;;;;6.15;3.70;;;;;;;22.11;71.77;97324.94;5034066;28;20048;-63
2021/08/01 08:59:18;;;;;;;6.75;4.07;;;;;;;21.31;72.11;97321.22;5034323;28;20755;-63
2021/08/01 09:01:43;;;;;;;9.52;4.03;;;;;;;20.92;74.07;97313.41;5034487;28;20033;-63
2021/08/01 09:04:10;;;;;;;6.85;4.00;;;;;;;20.84;75.72;97308.81;5032712;28;20402;-65
2021/08/01 09:06:36;;;;;;;7.25;3.75;;;;;;;21.03;73.15;97312.41;5036004;28;20076;-64
2021/08/01 09:09:02;;;;;;;6.00;3.60;;;;;;;20.68;75.46;97313.91;5033772;28;20029;-64
2021/08/01 09:11:27;;;;;;;5.40;3.92;;;;;;;20.06;79.38;97316.84;5036674;28;20033;-65
2021/08/01 09:13:55;;;;;;;9.63;4.30;;;;;;;20.15;79.72;97317.84;5035246;28;20020;-63
2021/08/01 09:16:22;;;;;;;5.28;3.83;;;;;;;20.44;78.01;97315.19;5040735;28;20107;-64
2021/08/01 09:18:49;;;;;;;9.15;4.53;;;;;;;20.30;79.03;97310.31;5034256;28;20021;-63
2021/08/01 09:21:32;;;;;;;7.05;4.88;;;;;;;21.66;71.65;97309.03;5020111;28;20044;-63
2021/08/01 09:23:59;;;;;;;8.20;4.88;;;;;;;21.70;71.68;97316.53;5034940;28;20079;-64
2021/08/01 09:26:24;;;;;;;7.28;4.20;;;;;;;23.09;67.66;97313.38;5032324;28;20046;-66
2021/08/01 09:29:04;;;;;;;6.03;3.90;;;;;;;25.10;64.18;97303.47;5033933;28;20044;-64
2021/08/01 09:31:29;;;;;;;5.60;3.65;;;;;;;25.07;59.53;97304.66;5036842;28;20071;-66
2021/08/01 09:33:55;;;;;;;8.52;4.38;;;;;;;23.30;63.87;97315.63;5033727;28;20517;-67
2021/08/01 09:36:24;;;;;;;6.20;3.85;;;;;;;23.85;62.55;97311.66;5044741;28;20037;-63
2021/08/01 09:38:57;;;;;;;7.20;3.45;;;;;;;23.96;62.97;97319.34;5034324;28;20032;-66
2021/08/01 09:41:34;;;;;;;7.47;3.47;;;;;;;22.06;66.80;97331.69;5033426;28;20040;-65
2021/08/01 09:44:02;;;;;;;5.78;3.83;;;;;;;21.91;67.85;97334.84;5035487;28;20025;-63
2021/08/01 09:46:42;;;;;;;6.75;4.07;;;;;;;21.73;68.28;97326.88;5035214;28;20085;-63
2021/08/01 09:49:19;;;;;;;5.75;3.60;;;;;;;21.35;72.02;97325.22;5037556;28;20144;-66
2021/08/01 09:51:45;;;;;;;5.68;3.30;;;;;;;21.74;69.46;97339.16;5037028;28;20037;-64
2021/08/01 09:54:11;;;;;;;5.70;3.80;;;;;;;21.49;71.13;97340.69;5041021;28;20786;-63
2021/08/01 09:56:58;;;;;;;6.13;4.00;;;;;;;21.31;71.53;97345.91;5036219;28;20030;-66
2021/08/01 09:59:29;;;;;;;5.95;4.00;;;;;;;21.36;70.96;97343.66;5035686;28;20097;-63
2021/08/01 10:01:57;;;;;;;5.20;4.00;;;;;;;21.88;69.56;97334.31;5032685;28;20035;-63
2021/08/01 10:04:40;;;;;;;5.00;3.75;;;;;;;21.77;68.98;97331.88;5035378;28;20021;-62
2021/08/01 10:07:13;;;;;;;6.28;3.60;;;;;;;22.52;68.72;97332.44;5037480;28;20058;-64
2021/08/01 10:09:47;;;;;;;8.20;3.38;;;;;;;22.37;68.87;97337.47;5036783;28;20704;-65
2021/08/01 10:12:14;;;;;;;6.55;3.78;;;;;;;21.87;69.06;97338.81;5034687;28;20519;-62
2021/08/01 10:14:40;;;;;;;5.75;3.70;;;;;;;21.89;69.24;97341.28;5030660;28;20747;-63
2021/08/01 10:17:08;;;;;;;6.80;3.63;;;;;;;22.55;67.33;97336.59;5032501;28;20556;-65
2021/08/01 10:19:35;;;;;;;4.80;3.15;;;;;;;22.83;65.35;97335.47;5034505;28;20035;-66
2021/08/01 10:22:03;;;;;;;5.45;3.22;;;;;;;23.19;65.73;97332.69;5034430;28;20048;-64
2021/08/01 10:24:38;;;;;;;5.18;3.50;;;;;;;24.37;61.51;97324.72;5033398;28;20104;-62
2021/08/01 10:27:08;;;;;;;4.97;3.13;;;;;;;23.49;63.27;97330.53;5033207;28;20132;-63
2021/08/01 10:29:46;;;;;;;6.50;3.63;;;;;;;23.34;63.41;97329.44;5031629;28;20267;-64
2021/08/01 10:32:12;;;;;;;6.85;3.30;;;;;;;23.70;62.21;97329.25;5034527;28;20860;-64
2021/08/01 10:34:58;;;;;;;6.95;3.20;;;;;;;23.52;62.09;97319.53;5029361;28;20587;-64
2021/08/01 10:37:25;;;;;;;5.22;3.10;;;;;;;23.85;62.45;97317.00;5034095;28;20041;-65
2021/08/01 10:39:52;;;;;;;7.07;3.15;;;;;;;23.27;63.20;97319.44;5038787;28;20064;-63
2021/08/01 10:42:19;;;;;;;6.20;3.28;;;;;;;23.38;62.47;97313.00;5032528;28;20901;-64
2021/08/01 10:44:46;;;;;;;4.70;3.30;;;;;;;24.53;58.97;97313.22;5034802;28;20123;-63
2021/08/01 10:47:13;;;;;;;7.47;3.40;;;;;;;23.19;62.91;97318.56;5037651;28;20095;-64
2021/08/01 10:49:40;;;;;;;4.25;2.78;;;;;;;24.59;58.75;97309.06;5036507;28;20044;-65
2021/08/01 10:52:12;;;;;;;7.57;3.08;;;;;;;24.34;59.89;97305.56;5032096;28;20249;-65
2021/08/01 10:54:59;;;;;;;5.68;2.53;;;;;;;24.60;58.09;97310.75;5032804;28;20024;-63
2021/08/01 10:57:27;;;;;;;5.78;2.88;;;;;;;24.07;60.08;97302.22;5033372;28;20060;-63
2021/08/01 10:59:58;;;;;;;4.03;2.55;;;;;;;23.51;60.86;97301.91;5036409;28;20044;-65
2021/08/01 11:02:25;;;;;;;5.80;2.60;;;;;;;23.20;62.80;97310.44;5035433;28;20033;-64
2021/08/01 11:04:52;;;;;;;5.30;2.60;;;;;;;23.43;62.47;97310.69;5036506;28;20078;-63
2021/08/01 11:07:26;;;;;;;5.20;2.58;;;;;;;23.01;64.23;97315.94;5034465;28;20811;-64
2021/08/01 11:10:04;;;;;;;3.95;2.70;;;;;;;22.90;66.51;97312.59;5035191;28;20140;-66
2021/08/01 11:12:33;;;;;;;3.58;2.33;;;;;;;22.96;64.94;97310.28;5035321;28;20046;-64
2021/08/01 11:15:01;;;;;;;5.75;2.60;;;;;;;22.67;67.33;97319.41;5035041;28;20024;-64
2021/08/01 11:17:48;;;;;;;4.72;2.60;;;;;;;22.55;67.49;97320.66;5034282;28;20099;-63
2021/08/01 11:20:16;;;;;;;4.72;2.70;;;;;;;22.03;67.98;97327.50;5024899;28;20064;-63
2021/08/01 11:22:44;;;;;;;4.32;2.58;;;;;;;21.78;73.31;97321.13;5033559;28;20020;-64
2021/08/01 11:25:27;;;;;;;4.32;2.97;;;;;;;20.93;74.98;97318.56;5034103;28;20067;-65
2021/08/01 11:28:12;;;;;;;5.10;3.10;;;;;;;20.66;76.79;97326.44;5031511;28;20027;-65
2021/08/01 11:30:49;;;;;;;3.80;2.35;;;;;;;21.55;74.74;97324.16;5031479;28;20048;-64